Time;durP1;ratioP1;P1;durP2;ratioP2;P2;SDS_P1;SDS_P2;PMS_P1;PMS_P2;Temp;Humidity;BMP_temperature;BMP_pressure;BME280_temperature;BME280_humidity;BME280_pressure;Samples;Min_cycle;Max_cycle;Signal;HPM_P1;HPM_P2
2023/07/15 00:00:07;;;;;;;;;;;20.00;86.10;;;;;;2087080;28;19983;-69
2023/07/15 00:01:20;;;;;;;;;;;20.00;86.10;;;;;;2092478;28;19917;-70
2023/07/15 00:02:21;;;;;;;;;;;20.00;86.20;;;;;;2092268;28;19920;-69
2023/07/15 00:03:21;;;;;;;;;;;20.00;86.30;;;;;;2096153;28;20002;-69
2023/07/15 00:04:21;;;;;;;;;;;19.90;86.30;;;;;;2096633;28;19916;-69
2023/07/15 00:05:30;;;;;;;;;;;19.90;86.40;;;;;;2096565;28;20005;-69
2023/07/15 00:06:31;;;;;;;;;;;19.90;86.50;;;;;;2096459;28;19958;-69
2023/07/15 00:07:32;;;;;;;;;;;19.80;86.60;;;;;;2086757;28;19947;-67
2023/07/15 00:08:33;;;;;;;;;;;19.80;86.80;;;;;;2091987;28;19920;-69
2023/07/15 00:09:33;;;;;;;;;;;19.80;86.80;;;;;;2095427;28;19921;-68
2023/07/15 00:10:36;;;;;;;;;;;19.80;87.00;;;;;;2095287;28;19916;-69
2023/07/15 00:11:38;;;;;;;;;;;19.70;87.00;;;;;;2096580;28;19927;-69
2023/07/15 00:12:38;;;;;;;;;;;19.70;87.20;;;;;;2098229;28;19916;-67
2023/07/15 00:13:39;;;;;;;;;;;19.70;87.30;;;;;;2091847;28;19925;-69
2023/07/15 00:14:39;;;;;;;;;;;19.70;87.30;;;;;;2096474;28;19912;-68
2023/07/15 00:15:41;;;;;;;;;;;19.60;87.50;;;;;;2098249;28;19912;-67
2023/07/15 00:16:42;;;;;;;;;;;19.60;87.60;;;;;;2092273;28;20041;-67
2023/07/15 00:17:43;;;;;;;;;;;19.60;87.60;;;;;;2095279;28;19916;-68
2023/07/15 00:18:43;;;;;;;;;;;19.60;87.70;;;;;;2095219;28;19912;-67
2023/07/15 00:19:44;;;;;;;;;;;19.60;87.60;;;;;;2098108;28;19916;-68
2023/07/15 00:20:45;;;;;;;;;;;19.60;87.80;;;;;;2094363;28;20094;-67
2023/07/15 00:21:45;;;;;;;;;;;19.60;87.90;;;;;;2095815;28;19965;-67
2023/07/15 00:22:46;;;;;;;;;;;19.60;88.00;;;;;;2091484;28;20011;-70
2023/07/15 00:23:48;;;;;;;;;;;19.50;88.00;;;;;;2096517;28;19920;-67
2023/07/15 00:24:49;;;;;;;;;;;19.60;88.00;;;;;;2096758;28;19923;-68
2023/07/15 00:25:53;;;;;;;;;;;19.50;88.10;;;;;;2098019;28;20160;-67
2023/07/15 00:26:54;;;;;;;;;;;19.60;88.10;;;;;;2092930;28;20286;-68
2023/07/15 00:27:54;;;;;;;;;;;19.60;88.30;;;;;;2090080;28;19956;-69
2023/07/15 00:28:55;;;;;;;;;;;19.50;88.20;;;;;;2094359;28;19982;-71
2023/07/15 00:29:56;;;;;;;;;;;19.50;88.20;;;;;;2096800;28;19913;-70
2023/07/15 00:30:56;;;;;;;;;;;19.50;88.30;;;;;;2095072;28;19998;-69
2023/07/15 00:31:57;;;;;;;;;;;19.50;88.30;;;;;;2092170;28;20239;-69
2023/07/15 00:32:57;;;;;;;;;;;19.50;88.30;;;;;;2090426;28;19920;-69
2023/07/15 00:33:58;;;;;;;;;;;19.50;88.30;;;;;;2093500;28;20302;-66
2023/07/15 00:35:00;;;;;;;;;;;19.50;88.20;;;;;;2098068;28;20183;-69
2023/07/15 00:36:01;;;;;;;;;;;19.40;88.40;;;;;;2095253;28;20432;-67
2023/07/15 00:37:01;;;;;;;;;;;19.40;88.50;;;;;;2094559;28;19938;-68
2023/07/15 00:38:02;;;;;;;;;;;19.40;88.50;;;;;;2085971;28;19971;-67
2023/07/15 00:39:04;;;;;;;;;;;19.40;88.60;;;;;;2097272;28;19917;-69
2023/07/15 00:40:05;;;;;;;;;;;19.40;88.70;;;;;;2091768;28;19935;-67
2023/07/15 00:41:25;;;;;;;;;;;19.40;88.60;;;;;;2096475;28;19913;-67
2023/07/15 00:42:46;;;;;;;;;;;19.40;88.70;;;;;;2092413;28;20096;-68
2023/07/15 00:43:58;;;;;;;;;;;19.40;88.90;;;;;;2095606;28;20007;-67
2023/07/15 00:44:58;;;;;;;;;;;19.30;89.10;;;;;;2095155;28;19920;-69
2023/07/15 00:46:26;;;;;;;;;;;19.30;89.20;;;;;;2092475;28;19912;-71
2023/07/15 00:47:30;;;;;;;;;;;19.30;89.30;;;;;;2072150;28;19913;-68
2023/07/15 00:48:32;;;;;;;;;;;19.30;89.40;;;;;;2089425;28;20003;-68
2023/07/15 00:49:34;;;;;;;;;;;19.20;89.40;;;;;;2090030;28;19917;-68
2023/07/15 00:50:39;;;;;;;;;;;19.30;89.60;;;;;;2095088;28;19981;-68
2023/07/15 00:51:44;;;;;;;;;;;19.20;89.70;;;;;;2093968;28;20556;-67
2023/07/15 00:52:45;;;;;;;;;;;19.20;89.70;;;;;;2088150;28;19913;-67
2023/07/15 00:53:46;;;;;;;;;;;19.20;89.90;;;;;;2092752;28;19979;-69
2023/07/15 00:54:49;;;;;;;;;;;19.20;90.00;;;;;;2092357;28;19913;-67
2023/07/15 00:55:51;;;;;;;;;;;19.10;90.10;;;;;;2096652;28;20375;-72
2023/07/15 00:56:52;;;;;;;;;;;19.20;90.30;;;;;;2096517;28;19912;-68
2023/07/15 00:57:52;;;;;;;;;;;19.10;90.40;;;;;;2092965;28;20018;-66
2023/07/15 00:58:53;;;;;;;;;;;19.10;90.60;;;;;;2094799;28;19977;-68
2023/07/15 00:59:58;;;;;;;;;;;19.10;90.80;;;;;;2095527;28;19916;-67
2023/07/15 01:00:58;;;;;;;;;;;19.10;90.90;;;;;;2095648;28;19916;-67
2023/07/15 01:01:59;;;;;;;;;;;19.10;91.00;;;;;;2094272;28;19917;-68
2023/07/15 01:03:00;;;;;;;;;;;19.10;91.10;;;;;;2094761;28;20390;-68
2023/07/15 01:04:01;;;;;;;;;;;19.10;91.20;;;;;;2097208;28;19920;-67
2023/07/15 01:05:02;;;;;;;;;;;19.10;91.30;;;;;;2082960;28;20032;-68
2023/07/15 01:06:02;;;;;;;;;;;19.10;91.20;;;;;;2091478;28;20128;-68
2023/07/15 01:07:06;;;;;;;;;;;19.10;91.10;;;;;;2096754;28;19912;-69
2023/07/15 01:08:06;;;;;;;;;;;19.00;91.00;;;;;;2090980;28;19912;-68
2023/07/15 01:09:08;;;;;;;;;;;19.00;91.00;;;;;;2089778;28;19939;-67
2023/07/15 01:10:08;;;;;;;;;;;19.00;91.00;;;;;;2093284;28;19917;-68
2023/07/15 01:11:10;;;;;;;;;;;19.00;91.10;;;;;;2091336;28;19920;-68
2023/07/15 01:12:12;;;;;;;;;;;19.00;91.10;;;;;;2089927;28;19994;-68
2023/07/15 01:13:13;;;;;;;;;;;19.00;91.00;;;;;;2091804;28;20339;-69
2023/07/15 01:14:13;;;;;;;;;;;19.00;91.10;;;;;;2092576;28;19975;-69
2023/07/15 01:15:14;;;;;;;;;;;19.00;91.10;;;;;;2092199;28;19950;-68
2023/07/15 01:16:15;;;;;;;;;;;18.90;91.00;;;;;;2098056;28;19916;-68
2023/07/15 01:17:17;;;;;;;;;;;18.90;91.00;;;;;;2097860;28;19934;-68
2023/07/15 01:18:20;;;;;;;;;;;19.00;91.10;;;;;;2105521;28;19916;-68
2023/07/15 01:19:21;;;;;;;;;;;18.90;91.10;;;;;;2093067;28;19919;-68
2023/07/15 01:20:25;;;;;;;;;;;18.90;91.10;;;;;;2093702;28;19934;-68
2023/07/15 01:21:28;;;;;;;;;;;18.90;91.20;;;;;;2093493;28;19991;-67
2023/07/15 01:22:29;;;;;;;;;;;18.90;91.30;;;;;;2092661;28;20510;-68
2023/07/15 01:23:32;;;;;;;;;;;18.90;91.20;;;;;;2086533;28;19917;-67
2023/07/15 01:24:34;;;;;;;;;;;18.90;91.20;;;;;;2089429;28;20004;-67
2023/07/15 01:25:34;;;;;;;;;;;18.90;91.30;;;;;;2097236;28;19920;-68
2023/07/15 01:26:35;;;;;;;;;;;18.90;91.30;;;;;;2096660;28;19942;-68
2023/07/15 01:27:35;;;;;;;;;;;18.80;91.30;;;;;;2092406;28;20011;-68
2023/07/15 01:28:37;;;;;;;;;;;18.80;91.40;;;;;;2092461;28;19916;-68
2023/07/15 01:29:39;;;;;;;;;;;18.80;91.40;;;;;;2092501;28;20491;-67
2023/07/15 01:30:39;;;;;;;;;;;18.80;91.40;;;;;;2095100;28;19962;-68
2023/07/15 01:31:41;;;;;;;;;;;18.80;91.40;;;;;;2093309;28;20295;-68
2023/07/15 01:32:42;;;;;;;;;;;18.80;91.50;;;;;;2093350;28;19912;-67
2023/07/15 01:33:43;;;;;;;;;;;18.80;91.50;;;;;;2094516;28;19916;-67
2023/07/15 01:34:45;;;;;;;;;;;18.80;91.70;;;;;;2098987;28;19912;-67
2023/07/15 01:35:47;;;;;;;;;;;18.80;91.70;;;;;;2095264;28;19916;-68
2023/07/15 01:36:48;;;;;;;;;;;18.80;91.70;;;;;;2092628;28;20410;-69
2023/07/15 01:37:49;;;;;;;;;;;18.70;91.70;;;;;;2089267;28;19912;-69
2023/07/15 01:38:49;;;;;;;;;;;18.80;91.80;;;;;;2092252;28;19916;-68
2023/07/15 01:39:50;;;;;;;;;;;18.70;91.80;;;;;;2106607;28;20343;-69
2023/07/15 01:40:50;;;;;;;;;;;18.70;91.80;;;;;;2099255;28;19937;-68
2023/07/15 01:41:51;;;;;;;;;;;18.70;91.90;;;;;;2096791;28;20312;-69
2023/07/15 01:42:51;;;;;;;;;;;18.70;91.90;;;;;;2096320;28;19958;-66
2023/07/15 01:43:53;;;;;;;;;;;18.70;92.00;;;;;;2099692;28;20062;-67
2023/07/15 01:44:54;;;;;;;;;;;18.60;92.00;;;;;;2092653;28;20114;-68
2023/07/15 01:45:54;;;;;;;;;;;18.60;92.00;;;;;;2093889;28;20167;-68
2023/07/15 01:46:55;;;;;;;;;;;18.60;92.10;;;;;;2093112;28;20223;-66
2023/07/15 01:47:55;;;;;;;;;;;18.60;92.20;;;;;;2098145;28;19923;-66
2023/07/15 01:48:59;;;;;;;;;;;18.60;92.20;;;;;;2093948;28;20410;-67
2023/07/15 01:50:00;;;;;;;;;;;18.50;92.30;;;;;;2093468;28;19917;-67
2023/07/15 01:51:00;;;;;;;;;;;18.50;92.30;;;;;;2084295;28;20007;-68
2023/07/15 01:52:01;;;;;;;;;;;18.50;92.30;;;;;;2098236;28;20003;-68
2023/07/15 01:53:02;;;;;;;;;;;18.50;92.30;;;;;;2097113;28;20365;-69
2023/07/15 01:54:02;;;;;;;;;;;18.50;92.40;;;;;;2096788;28;19946;-68
2023/07/15 01:55:03;;;;;;;;;;;18.50;92.50;;;;;;2097545;28;20386;-68
2023/07/15 01:56:04;;;;;;;;;;;18.50;92.50;;;;;;2097579;28;20437;-68
2023/07/15 01:57:05;;;;;;;;;;;18.40;92.50;;;;;;2098759;28;20401;-67
2023/07/15 01:58:05;;;;;;;;;;;18.40;92.60;;;;;;2080834;28;19968;-68
2023/07/15 01:59:07;;;;;;;;;;;18.50;92.70;;;;;;2084368;28;19943;-68
2023/07/15 02:00:10;;;;;;;;;;;18.40;92.80;;;;;;2090738;28;20000;-68
2023/07/15 02:01:14;;;;;;;;;;;18.40;92.90;;;;;;2098582;28;19941;-70
2023/07/15 02:02:14;;;;;;;;;;;18.40;92.90;;;;;;2099350;28;19912;-68
2023/07/15 02:03:15;;;;;;;;;;;18.40;93.00;;;;;;2097393;28;20302;-68
2023/07/15 02:04:16;;;;;;;;;;;18.40;93.00;;;;;;2096559;28;19916;-67
2023/07/15 02:05:16;;;;;;;;;;;18.40;93.10;;;;;;2087931;28;19916;-68
2023/07/15 02:06:17;;;;;;;;;;;18.40;93.10;;;;;;2096985;28;19966;-68
2023/07/15 02:07:18;;;;;;;;;;;18.40;93.10;;;;;;2098805;28;19961;-68
2023/07/15 02:08:22;;;;;;;;;;;18.40;93.10;;;;;;2092110;28;20370;-67
2023/07/15 02:09:23;;;;;;;;;;;18.40;93.50;;;;;;2095557;28;20383;-68
2023/07/15 02:10:24;;;;;;;;;;;18.30;93.50;;;;;;2096385;28;20036;-68
2023/07/15 02:11:24;;;;;;;;;;;18.30;93.10;;;;;;2098669;28;20008;-70
2023/07/15 02:12:25;;;;;;;;;;;18.30;93.10;;;;;;2094377;28;19924;-67
2023/07/15 02:13:25;;;;;;;;;;;18.30;93.20;;;;;;2095087;28;20002;-67
2023/07/15 02:14:26;;;;;;;;;;;18.30;93.10;;;;;;2096613;28;19922;-68
2023/07/15 02:15:28;;;;;;;;;;;18.30;93.10;;;;;;2095864;28;21286;-67
2023/07/15 02:16:29;;;;;;;;;;;18.30;93.00;;;;;;2096924;28;20390;-67
2023/07/15 02:17:29;;;;;;;;;;;18.30;93.00;;;;;;2097628;28;20402;-68
2023/07/15 02:18:30;;;;;;;;;;;18.30;92.90;;;;;;2095492;28;19938;-67
2023/07/15 02:19:33;;;;;;;;;;;18.30;92.90;;;;;;2096085;28;19913;-68
2023/07/15 02:20:34;;;;;;;;;;;18.30;92.90;;;;;;2095553;28;19921;-67
2023/07/15 02:21:34;;;;;;;;;;;18.30;92.80;;;;;;2098837;28;19960;-67
2023/07/15 02:22:35;;;;;;;;;;;18.30;92.80;;;;;;2092102;28;19916;-67
2023/07/15 02:23:35;;;;;;;;;;;18.30;92.80;;;;;;2096164;28;19942;-67
2023/07/15 02:24:36;;;;;;;;;;;18.30;92.80;;;;;;2096992;28;20146;-69
2023/07/15 02:25:37;;;;;;;;;;;18.30;92.90;;;;;;2089831;28;19924;-67
2023/07/15 02:26:40;;;;;;;;;;;18.40;92.90;;;;;;2088991;28;19916;-69
2023/07/15 02:27:40;;;;;;;;;;;18.30;92.90;;;;;;2093423;28;19920;-69
2023/07/15 02:28:41;;;;;;;;;;;18.40;92.90;;;;;;2087002;28;19913;-68
2023/07/15 02:29:41;;;;;;;;;;;18.30;92.90;;;;;;2089237;28;19917;-68
2023/07/15 02:30:42;;;;;;;;;;;18.40;92.90;;;;;;2087088;28;19917;-68
2023/07/15 02:31:43;;;;;;;;;;;18.30;92.80;;;;;;2096498;28;19920;-67
2023/07/15 02:32:44;;;;;;;;;;;18.30;92.90;;;;;;2087625;28;20011;-69
2023/07/15 02:33:44;;;;;;;;;;;18.30;92.90;;;;;;2096479;28;19962;-67
2023/07/15 02:34:45;;;;;;;;;;;18.30;92.90;;;;;;2096660;28;20346;-68
2023/07/15 02:35:45;;;;;;;;;;;18.30;92.90;;;;;;2092651;28;19977;-67
2023/07/15 02:36:47;;;;;;;;;;;18.30;92.90;;;;;;2094040;28;19923;-67
2023/07/15 02:37:51;;;;;;;;;;;18.30;92.90;;;;;;2092126;28;20406;-68
2023/07/15 02:38:52;;;;;;;;;;;18.30;93.00;;;;;;2093715;28;20005;-68
2023/07/15 02:39:52;;;;;;;;;;;18.30;93.10;;;;;;2095334;28;19912;-67
2023/07/15 02:40:53;;;;;;;;;;;18.30;93.30;;;;;;2098926;28;19987;-68
2023/07/15 02:41:54;;;;;;;;;;;18.20;93.30;;;;;;2092748;28;19931;-69
2023/07/15 02:42:55;;;;;;;;;;;18.20;93.50;;;;;;2093876;28;19966;-68
2023/07/15 02:43:55;;;;;;;;;;;18.20;93.50;;;;;;2088381;28;20356;-68
2023/07/15 02:44:55;;;;;;;;;;;18.20;93.50;;;;;;2096534;28;20371;-68
2023/07/15 02:45:56;;;;;;;;;;;18.20;93.50;;;;;;2092513;28;19931;-68
2023/07/15 02:46:57;;;;;;;;;;;18.20;93.60;;;;;;2094572;28;19917;-69
2023/07/15 02:47:57;;;;;;;;;;;18.20;93.60;;;;;;2095279;28;20015;-68
2023/07/15 02:48:59;;;;;;;;;;;18.20;93.40;;;;;;2096136;28;19920;-68
2023/07/15 02:50:00;;;;;;;;;;;18.20;93.30;;;;;;2096337;28;19916;-68
2023/07/15 02:51:01;;;;;;;;;;;18.20;93.50;;;;;;2089408;28;20174;-68
2023/07/15 02:52:02;;;;;;;;;;;18.20;93.50;;;;;;2092387;28;19917;-67
2023/07/15 02:53:03;;;;;;;;;;;18.20;93.50;;;;;;2097679;28;20385;-68
2023/07/15 02:54:03;;;;;;;;;;;18.20;93.50;;;;;;2098923;28;19923;-67
2023/07/15 02:55:06;;;;;;;;;;;18.20;93.50;;;;;;2092961;28;20577;-68
2023/07/15 02:56:07;;;;;;;;;;;18.10;93.50;;;;;;2091049;28;19927;-67
2023/07/15 02:57:07;;;;;;;;;;;18.10;93.50;;;;;;2093738;28;20449;-68
2023/07/15 02:58:08;;;;;;;;;;;18.10;93.50;;;;;;2092104;28;20421;-68
2023/07/15 02:59:08;;;;;;;;;;;18.10;93.50;;;;;;2096542;28;19920;-68
2023/07/15 03:00:11;;;;;;;;;;;18.10;93.50;;;;;;2091756;28;19923;-68
2023/07/15 03:01:13;;;;;;;;;;;18.10;93.50;;;;;;2097369;28;19920;-67
2023/07/15 03:02:13;;;;;;;;;;;18.10;93.50;;;;;;2092550;28;19916;-68
2023/07/15 03:03:14;;;;;;;;;;;18.10;93.50;;;;;;2094348;28;19917;-67
2023/07/15 03:04:15;;;;;;;;;;;18.10;93.50;;;;;;2092299;28;19962;-67
2023/07/15 03:05:16;;;;;;;;;;;18.10;93.50;;;;;;2091633;28;20391;-68
2023/07/15 03:06:17;;;;;;;;;;;18.10;93.40;;;;;;2091789;28;20141;-67
2023/07/15 03:07:17;;;;;;;;;;;18.10;93.40;;;;;;2093440;28;19917;-67
2023/07/15 03:08:18;;;;;;;;;;;18.10;93.50;;;;;;2086687;28;20237;-67
2023/07/15 03:09:18;;;;;;;;;;;18.10;93.50;;;;;;2092590;28;19923;-67
2023/07/15 03:10:19;;;;;;;;;;;18.20;93.60;;;;;;2089304;28;20019;-67
2023/07/15 03:11:19;;;;;;;;;;;18.20;93.60;;;;;;2098229;28;19971;-67
2023/07/15 03:12:20;;;;;;;;;;;18.10;93.60;;;;;;2083455;28;19923;-67
2023/07/15 03:13:20;;;;;;;;;;;18.20;93.60;;;;;;2086583;28;19929;-67
2023/07/15 03:14:21;;;;;;;;;;;18.10;93.50;;;;;;2095187;28;19917;-66
2023/07/15 03:15:21;;;;;;;;;;;18.10;93.60;;;;;;2098153;28;19924;-67
2023/07/15 03:16:22;;;;;;;;;;;18.10;93.60;;;;;;2087872;28;19916;-67
2023/07/15 03:17:23;;;;;;;;;;;18.10;93.60;;;;;;2092524;28;20011;-67
2023/07/15 03:18:25;;;;;;;;;;;18.20;93.60;;;;;;2096369;28;19951;-67
2023/07/15 03:19:26;;;;;;;;;;;18.20;93.60;;;;;;2096469;28;20345;-66
2023/07/15 03:20:27;;;;;;;;;;;18.20;93.50;;;;;;2093844;28;19916;-68
2023/07/15 03:21:27;;;;;;;;;;;18.20;93.60;;;;;;2083613;28;20380;-67
2023/07/15 03:22:28;;;;;;;;;;;18.10;93.60;;;;;;2081432;28;20198;-68
2023/07/15 03:23:28;;;;;;;;;;;18.20;93.60;;;;;;2091391;28;19923;-67
2023/07/15 03:24:29;;;;;;;;;;;18.20;93.60;;;;;;2094324;28;20014;-68
2023/07/15 03:25:29;;;;;;;;;;;18.20;93.70;;;;;;2096782;28;19922;-67
2023/07/15 03:26:30;;;;;;;;;;;18.20;93.80;;;;;;2095743;28;20365;-67
2023/07/15 03:27:30;;;;;;;;;;;18.20;93.70;;;;;;2087790;28;20130;-68
2023/07/15 03:28:31;;;;;;;;;;;18.20;93.80;;;;;;2096189;28;19920;-67
2023/07/15 03:29:32;;;;;;;;;;;18.20;93.80;;;;;;2096353;28;20341;-66
2023/07/15 03:30:32;;;;;;;;;;;18.20;93.80;;;;;;2090328;28;20367;-68
2023/07/15 03:31:33;;;;;;;;;;;18.20;93.90;;;;;;2093270;28;19913;-68
2023/07/15 03:32:35;;;;;;;;;;;18.20;94.00;;;;;;2095597;28;19913;-68
2023/07/15 03:33:36;;;;;;;;;;;18.10;94.00;;;;;;2097854;28;20351;-68
2023/07/15 03:34:36;;;;;;;;;;;18.20;94.00;;;;;;2094254;28;20013;-68
2023/07/15 03:35:37;;;;;;;;;;;18.10;94.00;;;;;;2092757;28;19931;-68
2023/07/15 03:36:38;;;;;;;;;;;18.10;94.10;;;;;;2093207;28;20399;-68
2023/07/15 03:37:42;;;;;;;;;;;18.10;94.10;;;;;;2097272;28;19916;-68
2023/07/15 03:38:42;;;;;;;;;;;18.20;94.20;;;;;;2097154;28;20113;-68
2023/07/15 03:39:43;;;;;;;;;;;18.10;94.20;;;;;;2095641;28;20433;-67
2023/07/15 03:40:43;;;;;;;;;;;18.20;94.30;;;;;;2095426;28;19912;-67
2023/07/15 03:41:43;;;;;;;;;;;18.10;94.30;;;;;;2095371;28;20413;-67
2023/07/15 03:42:45;;;;;;;;;;;18.20;94.40;;;;;;2097428;28;20382;-67
2023/07/15 03:43:45;;;;;;;;;;;18.20;94.40;;;;;;2087417;28;19926;-67
2023/07/15 03:44:46;;;;;;;;;;;18.20;94.40;;;;;;2091044;28;22780;-67
2023/07/15 03:45:46;;;;;;;;;;;18.20;94.40;;;;;;2096863;28;19924;-67
2023/07/15 03:46:47;;;;;;;;;;;18.20;94.40;;;;;;2097081;28;20035;-67
2023/07/15 03:47:47;;;;;;;;;;;18.20;94.40;;;;;;2096807;28;19916;-68
2023/07/15 03:48:48;;;;;;;;;;;18.20;94.40;;;;;;2094865;28;19923;-67
2023/07/15 03:49:48;;;;;;;;;;;18.20;94.50;;;;;;2093552;28;20007;-67
2023/07/15 03:50:49;;;;;;;;;;;18.20;94.40;;;;;;2090242;28;19967;-68
2023/07/15 03:51:49;;;;;;;;;;;18.20;94.40;;;;;;2087681;28;19935;-67
2023/07/15 03:52:50;;;;;;;;;;;18.30;94.40;;;;;;2092336;28;20201;-68
2023/07/15 03:53:50;;;;;;;;;;;18.30;94.40;;;;;;2097022;28;19962;-67
2023/07/15 03:54:51;;;;;;;;;;;18.30;94.40;;;;;;2097870;28;19916;-67
2023/07/15 03:55:51;;;;;;;;;;;18.30;94.50;;;;;;2088340;28;19917;-68
2023/07/15 03:56:52;;;;;;;;;;;18.30;94.60;;;;;;2092025;28;19916;-69
2023/07/15 03:57:52;;;;;;;;;;;18.30;94.70;;;;;;2094713;28;19924;-68
2023/07/15 03:58:54;;;;;;;;;;;18.30;94.60;;;;;;2094132;28;19921;-67
2023/07/15 03:59:54;;;;;;;;;;;18.30;94.60;;;;;;2089340;28;19912;-68
2023/07/15 04:00:55;;;;;;;;;;;18.30;94.50;;;;;;2087220;28;19930;-68
2023/07/15 04:01:56;;;;;;;;;;;18.30;94.40;;;;;;2092346;28;19912;-68
2023/07/15 04:02:56;;;;;;;;;;;18.30;94.40;;;;;;2087144;28;19962;-67
2023/07/15 04:03:57;;;;;;;;;;;18.40;94.40;;;;;;2098059;28;20026;-68
2023/07/15 04:04:57;;;;;;;;;;;18.30;94.40;;;;;;2091889;28;19955;-67
2023/07/15 04:05:58;;;;;;;;;;;18.40;94.50;;;;;;2095345;28;19924;-69
2023/07/15 04:06:59;;;;;;;;;;;18.40;94.50;;;;;;2094660;28;20006;-68
2023/07/15 04:07:59;;;;;;;;;;;18.40;94.50;;;;;;2096944;28;20462;-67
2023/07/15 04:09:00;;;;;;;;;;;18.40;94.40;;;;;;2090609;28;19916;-67
2023/07/15 04:10:00;;;;;;;;;;;18.40;94.40;;;;;;2092158;28;20253;-67
2023/07/15 04:11:01;;;;;;;;;;;18.50;94.40;;;;;;2096407;28;20095;-67
2023/07/15 04:12:02;;;;;;;;;;;18.60;94.30;;;;;;2091755;28;20366;-68
2023/07/15 04:13:02;;;;;;;;;;;18.60;94.20;;;;;;2096013;28;19916;-68
2023/07/15 04:14:03;;;;;;;;;;;18.70;94.10;;;;;;2096893;28;20371;-68
2023/07/15 04:15:04;;;;;;;;;;;18.70;94.10;;;;;;2097314;28;19912;-68
2023/07/15 04:16:04;;;;;;;;;;;18.80;93.90;;;;;;2095446;28;20022;-68
2023/07/15 04:17:05;;;;;;;;;;;19.00;93.80;;;;;;2093493;28;19974;-68
2023/07/15 04:18:05;;;;;;;;;;;19.20;93.60;;;;;;2090218;28;19919;-67
2023/07/15 04:19:06;;;;;;;;;;;19.50;93.20;;;;;;2093615;28;19912;-68
2023/07/15 04:20:10;;;;;;;;;;;19.90;92.60;;;;;;2090922;28;19919;-67
2023/07/15 04:21:10;;;;;;;;;;;20.20;91.90;;;;;;2094116;28;19912;-67
2023/07/15 04:22:12;;;;;;;;;;;20.60;91.00;;;;;;2096442;28;20204;-69
2023/07/15 04:23:13;;;;;;;;;;;20.90;90.50;;;;;;2087269;28;19917;-67
2023/07/15 04:24:13;;;;;;;;;;;21.20;89.60;;;;;;2096658;28;19916;-66
2023/07/15 04:25:14;;;;;;;;;;;21.50;88.20;;;;;;2097741;28;20397;-67
2023/07/15 04:26:22;;;;;;;;;;;21.90;87.00;;;;;;2095034;28;19966;-67
2023/07/15 04:27:22;;;;;;;;;;;22.20;84.90;;;;;;2089968;28;19916;-68
2023/07/15 04:28:23;;;;;;;;;;;22.60;83.50;;;;;;2093286;28;20318;-67
2023/07/15 04:29:23;;;;;;;;;;;22.80;81.70;;;;;;2095158;28;19917;-66
2023/07/15 04:30:24;;;;;;;;;;;23.20;80.80;;;;;;2098540;28;20448;-67
2023/07/15 04:31:24;;;;;;;;;;;23.40;79.40;;;;;;2092467;28;20208;-67
2023/07/15 04:32:25;;;;;;;;;;;23.50;77.30;;;;;;2096314;28;20002;-67
2023/07/15 04:33:26;;;;;;;;;;;23.70;77.30;;;;;;2096323;28;19973;-67
2023/07/15 04:34:26;;;;;;;;;;;23.80;76.20;;;;;;2095574;28;19913;-67
2023/07/15 04:35:27;;;;;;;;;;;24.00;75.80;;;;;;2097167;28;20023;-68
2023/07/15 04:36:27;;;;;;;;;;;24.30;75.00;;;;;;2095581;28;19998;-68
2023/07/15 04:37:29;;;;;;;;;;;24.40;73.90;;;;;;2095643;28;20348;-68
2023/07/15 04:38:29;;;;;;;;;;;24.60;73.40;;;;;;2093519;28;19966;-67
2023/07/15 04:39:30;;;;;;;;;;;24.80;72.70;;;;;;2089641;28;19917;-66
2023/07/15 04:40:31;;;;;;;;;;;25.00;71.90;;;;;;2098782;28;20382;-67
2023/07/15 04:41:31;;;;;;;;;;;25.20;71.20;;;;;;2092532;28;20023;-67
2023/07/15 04:42:32;;;;;;;;;;;25.30;71.00;;;;;;2096655;28;19946;-67
2023/07/15 04:43:33;;;;;;;;;;;25.40;70.40;;;;;;2098425;28;19916;-67
2023/07/15 04:44:33;;;;;;;;;;;25.40;70.20;;;;;;2095383;28;19916;-67
2023/07/15 04:45:34;;;;;;;;;;;25.40;69.80;;;;;;2095768;28;19974;-67
2023/07/15 04:46:36;;;;;;;;;;;25.30;69.80;;;;;;2093030;28;19923;-67
2023/07/15 04:47:37;;;;;;;;;;;25.40;69.50;;;;;;2092884;28;19917;-68
2023/07/15 04:48:38;;;;;;;;;;;25.40;69.60;;;;;;2097546;28;19916;-68
2023/07/15 04:49:39;;;;;;;;;;;25.40;69.40;;;;;;2093093;28;19916;-68
2023/07/15 04:50:40;;;;;;;;;;;25.50;69.40;;;;;;2098288;28;19969;-67
2023/07/15 04:51:41;;;;;;;;;;;25.60;68.90;;;;;;2098347;28;20010;-68
2023/07/15 04:52:41;;;;;;;;;;;25.70;69.00;;;;;;2097458;28;19916;-70
2023/07/15 04:53:43;;;;;;;;;;;25.90;68.30;;;;;;2096468;28;19912;-67
2023/07/15 04:54:43;;;;;;;;;;;26.10;67.90;;;;;;2096868;28;19916;-67
2023/07/15 04:55:45;;;;;;;;;;;26.30;67.30;;;;;;2092640;28;19970;-67
2023/07/15 04:56:46;;;;;;;;;;;26.40;66.10;;;;;;2097027;28;20374;-66
2023/07/15 04:57:46;;;;;;;;;;;26.30;66.10;;;;;;2096559;28;20014;-67
2023/07/15 04:58:47;;;;;;;;;;;26.50;65.90;;;;;;2098423;28;19912;-67
2023/07/15 04:59:49;;;;;;;;;;;26.50;65.30;;;;;;2098126;28;19917;-67
2023/07/15 05:00:49;;;;;;;;;;;26.60;65.00;;;;;;2094335;28;19916;-67
2023/07/15 05:01:51;;;;;;;;;;;26.60;65.10;;;;;;2098483;28;20125;-79
2023/07/15 05:02:52;;;;;;;;;;;26.70;65.10;;;;;;2095139;28;19948;-66
2023/07/15 05:03:52;;;;;;;;;;;26.80;64.60;;;;;;2097034;28;20325;-76
2023/07/15 05:04:53;;;;;;;;;;;26.90;64.20;;;;;;2096908;28;19920;-65
2023/07/15 05:05:53;;;;;;;;;;;26.90;64.10;;;;;;2096582;28;19932;-74
2023/07/15 05:06:54;;;;;;;;;;;27.00;64.00;;;;;;2098314;28;19987;-74
2023/07/15 05:07:59;;;;;;;;;;;27.20;63.60;;;;;;2096975;28;19950;-74
2023/07/15 05:09:00;;;;;;;;;;;27.30;63.20;;;;;;2091187;28;19939;-74
2023/07/15 05:10:01;;;;;;;;;;;27.40;62.80;;;;;;2094568;28;19917;-74
2023/07/15 05:11:01;;;;;;;;;;;27.30;62.70;;;;;;2097102;28;20273;-74
2023/07/15 05:12:02;;;;;;;;;;;27.40;62.80;;;;;;2090463;28;19912;-75
2023/07/15 05:13:02;;;;;;;;;;;27.40;62.80;;;;;;2096389;28;20070;-75
2023/07/15 05:14:04;;;;;;;;;;;27.40;62.60;;;;;;2096983;28;19973;-75
2023/07/15 05:15:05;;;;;;;;;;;27.40;62.50;;;;;;2093189;28;19993;-75
2023/07/15 05:16:05;;;;;;;;;;;27.50;62.50;;;;;;2096164;28;20069;-75
2023/07/15 05:17:07;;;;;;;;;;;27.50;62.70;;;;;;2096664;28;19919;-76
2023/07/15 05:18:08;;;;;;;;;;;27.50;62.30;;;;;;2096630;28;20375;-75
2023/07/15 05:19:08;;;;;;;;;;;27.50;61.90;;;;;;2099109;28;19916;-76
2023/07/15 05:20:09;;;;;;;;;;;27.40;62.10;;;;;;2095244;28;19954;-75
2023/07/15 05:21:09;;;;;;;;;;;27.40;62.20;;;;;;2092579;28;19920;-76
2023/07/15 05:22:10;;;;;;;;;;;27.50;62.30;;;;;;2097135;28;19915;-76
2023/07/15 05:23:11;;;;;;;;;;;27.70;61.90;;;;;;2098568;28;19916;-75
2023/07/15 05:24:11;;;;;;;;;;;27.80;61.50;;;;;;2098618;28;19937;-76
2023/07/15 05:25:15;;;;;;;;;;;27.90;61.20;;;;;;2096330;28;19969;-75
2023/07/15 05:26:15;;;;;;;;;;;28.00;61.30;;;;;;2097256;28;20295;-76
2023/07/15 05:27:16;;;;;;;;;;;28.10;60.60;;;;;;2096370;28;19927;-76
2023/07/15 05:28:17;;;;;;;;;;;28.10;60.50;;;;;;2099267;28;20003;-76
2023/07/15 05:29:17;;;;;;;;;;;28.00;60.40;;;;;;2098026;28;19931;-76
2023/07/15 05:30:19;;;;;;;;;;;28.10;60.50;;;;;;2097981;28;19966;-76
2023/07/15 05:31:19;;;;;;;;;;;28.20;60.30;;;;;;2098075;28;19920;-76
2023/07/15 05:32:20;;;;;;;;;;;28.30;59.90;;;;;;2098804;28;20425;-76
2023/07/15 05:33:20;;;;;;;;;;;28.20;60.10;;;;;;2095748;28;20482;-77
2023/07/15 05:34:21;;;;;;;;;;;28.20;60.10;;;;;;2087733;28;19952;-76
2023/07/15 05:35:21;;;;;;;;;;;28.40;59.70;;;;;;2094759;28;19909;-76
2023/07/15 05:36:22;;;;;;;;;;;28.50;59.70;;;;;;2092710;28;20383;-76
2023/07/15 05:37:22;;;;;;;;;;;28.50;59.40;;;;;;2099161;28;19916;-76
2023/07/15 05:38:24;;;;;;;;;;;28.50;59.40;;;;;;2098042;28;19982;-76
2023/07/15 05:39:24;;;;;;;;;;;28.40;59.20;;;;;;2093167;28;20405;-75
2023/07/15 05:40:24;;;;;;;;;;;28.40;59.40;;;;;;2098074;28;19919;-76
2023/07/15 05:41:25;;;;;;;;;;;28.40;59.40;;;;;;2098863;28;20003;-76
2023/07/15 05:42:26;;;;;;;;;;;28.50;59.40;;;;;;2096440;28;20135;-76
2023/07/15 05:43:26;;;;;;;;;;;28.70;59.30;;;;;;2096689;28;19922;-75
2023/07/15 05:44:26;;;;;;;;;;;28.80;59.30;;;;;;2096771;28;20473;-74
2023/07/15 05:45:27;;;;;;;;;;;28.80;59.20;;;;;;2096465;28;19959;-73
2023/07/15 05:46:28;;;;;;;;;;;28.90;58.40;;;;;;2099576;28;20434;-76
2023/07/15 05:47:28;;;;;;;;;;;28.70;59.30;;;;;;2093831;28;19960;-77
2023/07/15 05:48:29;;;;;;;;;;;28.80;58.90;;;;;;2097371;28;19916;-76
2023/07/15 05:49:29;;;;;;;;;;;28.80;58.80;;;;;;2098497;28;19916;-76
2023/07/15 05:50:34;;;;;;;;;;;29.00;58.70;;;;;;2096484;28;20378;-77
2023/07/15 05:51:34;;;;;;;;;;;29.00;58.60;;;;;;2096047;28;19923;-76
2023/07/15 05:52:35;;;;;;;;;;;29.00;58.60;;;;;;2095429;28;20064;-77
2023/07/15 05:53:36;;;;;;;;;;;29.10;58.50;;;;;;2093141;28;19919;-77
2023/07/15 05:54:36;;;;;;;;;;;29.10;58.50;;;;;;2093540;28;19917;-77
2023/07/15 05:55:37;;;;;;;;;;;29.10;58.40;;;;;;2099334;28;20027;-77